Patterson, Iowa
Current Conditions -  °F | °C
As of 5:08 PM on Saturday 22 Nov 2014 (Local Time) from KDSM Reporting Station
Drizzle Drizzle  
Wind Chill: 51°   Ceiling: 200
Heat Index: 51°   Visibility: 1mi
Dew Point: 49°   Wind: 9mph
Humidity: 92%   Direction: 170°S
Pressure: 29.72"   Gusts: NA
Location:  41.35°N, 93.88°W
Report Text: KDSM 222308Z 17008KT 1SM R31/P6000FT -DZ BR OVC002 11/09 A2972 RMK AO2 P0000 T01060094
Loading
Personal Weather Stations






























Interactive Weather Map New forecast layout! Learn more

10-Day Weather Forecast

Advertisements
Track Severe Weather on mobile